Time;durP1;ratioP1;P1;durP2;ratioP2;P2;SDS_P1;SDS_P2;PMS_P1;PMS_P2;Temp;Humidity;BMP_temperature;BMP_pressure;BME280_temperature;BME280_humidity;BME280_pressure;Samples;Min_cycle;Max_cycle;Signal;HPM_P1;HPM_P2
2022/04/22 00:00:41;;;;;;;2.97;2.47;;;13.70;47.80;;;14.30;38.64;97493.16;5009902;28;123083;-94
2022/04/22 00:03:08;;;;;;;2.43;2.23;;;13.70;47.90;;;14.28;38.71;97498.25;5012126;28;122694;-93
2022/04/22 00:05:36;;;;;;;3.10;2.30;;;13.90;48.20;;;14.28;38.86;97495.47;5010437;28;115132;-94
2022/04/22 00:08:02;;;;;;;3.30;2.73;;;13.70;48.10;;;14.24;38.92;97494.59;5012312;28;114251;-94
2022/04/22 00:10:29;;;;;;;2.13;1.93;;;13.70;48.30;;;14.20;38.93;97499.31;5014188;28;122738;-92
2022/04/22 00:12:56;;;;;;;3.97;2.30;;;13.60;48.20;;;14.17;38.93;97497.25;5010460;28;122698;-96
2022/04/22 00:15:23;;;;;;;2.63;2.40;;;13.60;48.30;;;14.15;38.96;97503.97;5008640;28;114288;-92
2022/04/22 00:17:50;;;;;;;2.50;2.30;;;13.60;48.40;;;14.13;39.09;97484.13;5011324;28;114076;-94
2022/04/22 00:20:16;;;;;;;2.47;2.07;;;13.60;48.50;;;14.12;39.62;97495.56;5011803;28;124463;-93
2022/04/22 00:22:44;;;;;;;2.67;2.20;;;13.50;48.40;;;14.10;39.00;97492.34;5028425;28;123241;-94
2022/04/22 00:25:14;;;;;;;2.57;2.03;;;13.50;48.50;;;14.08;39.19;97494.72;5010386;28;114322;-94
2022/04/22 00:27:41;;;;;;;2.40;2.20;;;13.50;48.60;;;14.02;39.21;97488.63;5012055;28;112288;-94
2022/04/22 00:30:11;;;;;;;3.00;2.37;;;13.50;48.70;;;14.00;39.44;97484.66;5010396;28;123555;-93
2022/04/22 00:32:38;;;;;;;2.60;2.40;;;13.40;49.30;;;13.98;39.26;97476.66;5012112;28;123838;-93
2022/04/22 00:35:06;;;;;;;4.90;2.93;;;13.40;48.80;;;13.95;39.53;97482.97;5010417;28;114515;-93
2022/04/22 00:37:32;;;;;;;3.47;2.63;;;13.40;48.90;;;13.92;39.53;97483.69;5011062;28;114182;-93
2022/04/22 00:39:59;;;;;;;2.40;2.20;;;13.30;49.00;;;13.89;39.75;97476.13;5018986;28;123193;-93
2022/04/22 00:42:28;;;;;;;2.73;2.40;;;13.30;49.20;;;13.85;39.88;97475.22;5026769;28;123801;-95
2022/04/22 00:44:56;;;;;;;3.33;3.03;;;13.20;49.40;;;13.81;40.07;97477.13;5009862;28;114318;-95
2022/04/22 00:47:24;;;;;;;4.80;2.90;;;13.20;49.30;;;13.78;40.12;97472.31;5009499;28;113457;-95
2022/04/22 00:49:51;;;;;;;3.10;2.80;;;13.20;49.50;;;13.74;40.05;97472.25;5000303;28;121925;-93
2022/04/22 00:52:19;;;;;;;3.00;2.53;;;13.20;49.60;;;13.70;39.88;97466.63;5012525;28;124054;-93
2022/04/22 00:54:47;;;;;;;3.43;3.13;;;13.20;49.60;;;13.68;40.24;97463.41;5008899;28;115316;-95
2022/04/22 00:57:15;;;;;;;3.67;2.60;;;13.10;49.80;;;13.66;40.37;97462.97;5007844;28;115014;-95
2022/04/22 00:59:42;;;;;;;2.80;2.50;;;13.10;49.80;;;13.64;40.30;97461.72;5009301;28;124232;-94
2022/04/22 01:02:08;;;;;;;4.90;2.73;;;13.10;49.90;;;13.61;40.53;97452.16;5009785;28;124222;-94
2022/04/22 01:10:06;;;;;;;2.90;2.60;;;14.50;51.60;;;13.45;40.74;97443.09;4997927;28;123939;-93
2022/04/22 01:12:33;;;;;;;3.07;2.77;;;12.90;50.30;;;13.43;41.01;97457.34;5032520;28;121971;-94
2022/04/22 01:15:01;;;;;;;4.07;3.20;;;12.90;50.40;;;13.42;40.80;97450.19;5011899;28;114322;-93
2022/04/22 01:17:29;;;;;;;3.23;2.93;;;12.90;50.50;;;13.43;40.86;97448.19;5010970;28;113412;-92
2022/04/22 01:19:55;;;;;;;2.97;2.77;;;12.80;50.40;;;13.39;40.99;97450.13;5011352;28;123589;-93
2022/04/22 01:22:23;;;;;;;2.90;2.60;;;12.80;50.50;;;13.38;41.07;97442.94;5011030;28;122723;-92
2022/04/22 01:24:56;;;;;;;2.60;2.40;;;12.80;50.60;;;13.40;41.03;97435.06;5011506;28;114116;-93
2022/04/22 01:27:24;;;;;;;4.50;3.77;;;12.80;50.60;;;13.37;41.41;97431.03;5010240;28;113756;-92
2022/04/22 01:29:51;;;;;;;4.13;3.60;;;12.80;51.00;;;13.31;41.49;97438.06;5013463;28;123287;-93
2022/04/22 01:32:18;;;;;;;6.00;3.40;;;12.80;51.30;;;13.26;41.42;97422.50;5011053;28;123685;-93
2022/04/22 01:34:44;;;;;;;3.10;2.60;;;12.70;51.10;;;13.26;41.58;97430.03;5010766;28;114079;-93
2022/04/22 01:37:11;;;;;;;4.00;3.60;;;12.70;51.20;;;13.25;41.46;97426.41;5024812;28;113823;-93
2022/04/22 01:39:37;;;;;;;3.50;3.20;;;12.70;51.30;;;13.23;41.15;97420.44;5012955;28;124040;-93
2022/04/22 01:42:06;;;;;;;3.43;3.13;;;12.60;51.30;;;13.22;42.04;97418.03;5009795;28;123312;-92
2022/04/22 01:44:35;;;;;;;4.67;2.97;;;12.60;51.30;;;13.21;41.73;97422.75;5009782;28;115303;-92
2022/04/22 01:47:06;;;;;;;3.40;3.10;;;12.60;51.30;;;13.20;41.66;97412.84;5010715;28;114816;-95
2022/04/22 01:49:32;;;;;;;5.10;3.80;;;12.60;51.50;;;13.15;41.88;97406.78;5012738;28;123436;-92
2022/04/22 01:52:00;;;;;;;3.80;3.27;;;12.60;51.70;;;13.11;41.85;97401.16;5010269;28;122974;-93
2022/04/22 01:54:28;;;;;;;4.20;3.50;;;12.50;51.60;;;13.12;42.17;97407.50;5010745;28;114190;-94
2022/04/22 01:56:54;;;;;;;4.03;3.27;;;12.50;51.70;;;13.11;41.91;97392.00;5033928;27;113384;-93
2022/04/22 01:59:22;;;;;;;4.57;3.50;;;12.50;51.70;;;13.09;42.03;97403.50;5011604;28;123982;-93
2022/04/22 02:01:48;;;;;;;5.30;3.80;;;12.60;51.90;;;13.03;42.28;97391.88;5010139;28;123112;-92
2022/04/22 02:04:15;;;;;;;6.30;4.27;;;12.40;52.10;;;12.96;42.17;97399.25;5009665;28;113551;-93
2022/04/22 02:06:41;;;;;;;6.17;4.43;;;12.40;52.20;;;12.92;42.40;97395.56;5013559;28;114016;-92
2022/04/22 02:09:08;;;;;;;5.20;3.60;;;12.40;52.20;;;12.89;42.66;97391.56;5009020;28;123107;-93
2022/04/22 02:11:40;;;;;;;5.00;4.07;;;12.30;52.30;;;12.87;42.66;97390.31;5011831;28;122863;-94
2022/04/22 02:14:06;;;;;;;3.77;3.40;;;12.30;52.40;;;12.86;42.67;97394.25;5012045;28;113654;-93
2022/04/22 02:16:34;;;;;;;3.60;3.23;;;12.30;52.40;;;12.84;42.59;97391.84;5013685;28;112849;-91
2022/04/22 02:19:00;;;;;;;4.77;3.50;;;12.30;52.50;;;12.82;42.98;97394.97;5013352;28;124133;-93
2022/04/22 02:21:28;;;;;;;3.77;3.37;;;12.30;52.50;;;12.80;42.70;97391.75;5012580;28;123847;-92
2022/04/22 02:23:54;;;;;;;3.80;3.30;;;12.30;52.60;;;12.76;42.95;97396.44;5013397;28;113857;-93
2022/04/22 02:26:21;;;;;;;4.47;3.60;;;12.30;52.60;;;12.73;42.97;97391.59;5012510;28;113136;-92
2022/04/22 02:28:47;;;;;;;3.87;3.50;;;12.20;52.60;;;12.69;43.13;97392.69;5012723;28;124277;-92
2022/04/22 02:31:15;;;;;;;5.03;4.10;;;12.20;52.80;;;12.63;42.89;97383.88;5013838;28;123784;-92
2022/04/22 02:33:42;;;;;;;5.00;3.80;;;12.10;52.80;;;12.56;43.19;97381.72;5015525;28;114953;-92
2022/04/22 02:36:10;;;;;;;5.40;4.10;;;12.10;52.80;;;12.50;43.24;97376.81;5018323;28;114009;-93
2022/04/22 02:38:55;;;;;;;4.33;3.93;;;12.00;52.90;;;12.43;43.54;97376.66;5018677;28;123599;-92
2022/04/22 02:50:54;;;;;;;4.73;3.87;;;11.80;53.30;;;12.15;43.76;97366.50;5033589;28;125100;-91
2022/04/22 02:57:03;;;;;;;5.03;3.97;;;11.70;53.60;;;12.04;43.93;97355.16;5040286;28;115276;-90
2022/04/22 03:03:11;;;;;;;4.63;3.93;;;11.50;53.80;;;11.96;44.46;97352.59;5039488;28;127100;-91
2022/04/22 03:09:26;;;;;;;5.03;3.90;;;11.50;54.20;;;11.86;44.37;97354.69;5040178;28;115263;-91
2022/04/22 03:15:36;;;;;;;5.60;4.00;;;11.30;54.30;;;11.77;44.62;97350.47;5039072;28;125117;-92
2022/04/22 03:18:02;;;;;;;5.27;4.10;;;11.30;54.40;;;11.76;44.86;97352.44;5037423;28;124509;-92
2022/04/22 03:24:13;;;;;;;5.03;4.50;;;11.30;54.70;;;11.70;44.75;97342.78;5040049;27;116357;-92
2022/04/22 03:30:22;;;;;;;4.93;4.43;;;11.20;54.90;;;11.68;45.32;97343.13;5040930;28;124727;-92
2022/04/22 03:36:30;;;;;;;8.33;6.03;;;11.20;55.30;;;11.65;45.73;97341.09;5040460;27;115898;-93
2022/04/22 03:43:17;;;;;;;8.33;6.90;;;11.00;56.50;;;11.39;46.03;97338.00;5040840;28;124765;-78
2022/04/22 03:46:40;;;;;;;10.27;7.03;;;10.90;56.30;;;11.36;46.68;97341.47;5039774;27;114987;-93
2022/04/22 03:52:49;;;;;;;8.03;7.10;;;10.80;56.70;;;11.27;46.66;97344.41;5038225;27;125075;-84
2022/04/22 04:02:39;;;;;;;6.60;4.77;;;10.80;56.80;;;11.40;46.23;97339.63;5040246;27;114922;-93
2022/04/22 04:05:06;;;;;;;7.90;6.37;;;10.80;56.90;;;11.40;46.93;97336.88;5038055;27;123642;-92
2022/04/22 04:08:31;;;;;;;8.47;6.17;;;10.80;57.50;;;11.37;46.70;97341.13;5034597;28;123445;-93
2022/04/22 04:23:57;;;;;;;7.73;6.30;;;10.80;57.40;;;11.35;46.77;97337.91;5029766;28;115283;-93
2022/04/22 04:26:42;;;;;;;9.40;6.73;;;10.80;57.60;;;11.35;47.05;97340.69;5028315;28;113287;-91
2022/04/22 04:29:29;;;;;;;11.33;8.17;;;10.80;57.70;;;11.34;46.69;97343.78;5005214;28;124804;-93
2022/04/22 04:31:55;;;;;;;9.43;7.17;;;10.80;57.80;;;11.35;47.41;97351.75;5021884;28;122813;-91
2022/04/22 04:34:23;;;;;;;8.70;7.27;;;10.80;58.10;;;11.33;46.96;97351.28;5005087;28;115998;-93
2022/04/22 04:36:49;;;;;;;11.13;9.00;;;10.70;58.10;;;11.31;47.42;97345.34;5023828;28;114394;-92
2022/04/22 04:39:16;;;;;;;10.07;8.07;;;10.70;58.50;;;11.30;47.70;97346.47;5025051;28;123029;-96
2022/04/22 04:41:44;;;;;;;10.93;8.70;;;10.70;58.40;;;11.29;47.38;97347.63;5026539;28;124387;-93
2022/04/22 04:44:12;;;;;;;13.97;9.20;;;10.70;58.60;;;11.25;47.48;97342.00;5026009;28;114892;-95
2022/04/22 04:46:59;;;;;;;11.60;8.30;;;10.70;58.80;;;11.25;47.26;97349.47;5025011;28;113306;-93
2022/04/22 04:49:27;;;;;;;11.30;7.90;;;10.70;58.80;;;11.20;47.55;97339.50;5044032;27;123576;-93
2022/04/22 04:51:55;;;;;;;10.70;8.60;;;10.70;59.00;;;11.16;47.67;97343.31;5028256;28;123544;-92
2022/04/22 04:54:23;;;;;;;14.13;10.83;;;10.70;59.20;;;11.12;48.12;97345.97;5025909;28;113560;-94
2022/04/22 04:56:51;;;;;;;12.73;10.00;;;10.60;59.90;;;11.09;47.81;97354.16;5023865;28;113444;-93
2022/04/22 04:59:22;;;;;;;9.40;7.57;;;10.60;59.60;;;11.11;48.36;97354.63;5026041;28;124805;-93
2022/04/22 05:01:51;;;;;;;8.17;6.83;;;10.50;59.40;;;11.17;48.03;97362.28;5043915;27;122496;-93
2022/04/22 05:04:38;;;;;;;9.57;7.20;;;10.60;59.70;;;11.28;48.30;97359.84;5027370;28;114190;-94
2022/04/22 05:07:05;;;;;;;13.20;9.17;;;10.60;60.10;;;11.29;48.97;97355.94;5025711;28;113479;-93
2022/04/22 05:09:31;;;;;;;16.23;11.43;;;10.60;61.00;;;11.24;49.00;97350.66;5023310;28;123934;-93
2022/04/22 05:11:59;;;;;;;13.03;9.67;;;10.60;61.20;;;11.18;48.80;97344.56;5024853;28;124309;-93
2022/04/22 05:14:27;;;;;;;14.53;11.00;;;10.60;61.10;;;11.15;48.80;97347.22;5027023;28;114026;-92
2022/04/22 05:17:32;;;;;;;14.97;9.90;;;10.60;61.30;;;11.09;49.32;97334.81;5031665;27;113834;-93
2022/04/22 05:19:59;;;;;;;12.73;9.23;;;10.60;61.60;;;11.11;49.20;97326.97;5031940;28;123528;-93
2022/04/22 05:22:26;;;;;;;10.53;8.53;;;10.50;61.60;;;11.14;49.34;97334.56;5031607;27;123197;-81
2022/04/22 05:32:38;;;;;;;15.13;9.93;;;10.60;61.90;;;11.18;49.03;97347.34;5026578;28;124667;-92
2022/04/22 05:35:08;;;;;;;20.37;11.13;;;10.60;61.80;;;11.21;49.86;97349.41;5030102;28;122140;-93
2022/04/22 05:37:53;;;;;;;14.00;10.93;;;10.60;62.50;;;11.21;49.98;97354.13;5016019;28;114285;-92
2022/04/22 05:40:22;;;;;;;16.37;11.40;;;10.60;63.10;;;11.16;49.88;97337.78;5024769;28;113768;-94
2022/04/22 05:42:52;;;;;;;14.00;10.33;;;10.60;62.80;;;11.18;49.57;97338.25;5005353;28;123738;-94
2022/04/22 05:45:21;;;;;;;13.67;11.00;;;10.70;62.60;;;11.22;49.94;97344.66;5016649;28;123066;-93
2022/04/22 05:47:47;;;;;;;15.73;11.40;;;10.70;63.20;;;11.21;49.95;97341.09;5027928;28;112539;-94
2022/04/22 05:51:12;;;;;;;15.70;11.13;;;10.60;63.70;;;11.23;49.58;97340.72;5031368;28;113108;-92
2022/04/22 05:53:44;;;;;;;11.27;9.43;;;10.70;63.10;;;11.27;49.51;97342.44;5019603;28;124307;-94
2022/04/22 05:56:10;;;;;;;13.40;9.90;;;10.70;62.90;;;11.33;49.92;97336.66;5015550;28;121977;-94
2022/04/22 05:58:37;;;;;;;13.80;10.40;;;10.70;63.10;;;11.38;49.55;97336.41;5044422;28;113413;-94
2022/04/22 06:01:05;;;;;;;14.77;10.93;;;10.70;63.10;;;11.43;49.25;97338.91;5025335;28;113899;-94
2022/04/22 06:03:32;;;;;;;11.90;10.10;;;10.80;63.00;;;11.52;49.38;97336.78;5028423;28;124424;-94
2022/04/22 06:06:00;;;;;;;15.77;11.30;;;10.90;63.00;;;11.60;49.84;97337.78;5031163;28;123409;-93
2022/04/22 06:11:11;;;;;;;13.43;10.70;;;11.00;63.30;;;11.71;49.14;97327.78;5029409;28;115175;-92
2022/04/22 06:13:38;;;;;;;15.50;11.03;;;11.20;63.40;;;11.77;48.93;97329.16;5020306;28;124099;-93
2022/04/22 06:16:04;;;;;;;16.20;10.93;;;11.10;63.10;;;11.86;48.84;97332.56;5016891;28;122946;-93
2022/04/22 06:18:31;;;;;;;13.73;10.80;;;11.20;63.30;;;11.90;48.60;97333.47;5019839;28;115122;-93
2022/04/22 06:20:57;;;;;;;16.47;12.27;;;11.20;63.70;;;11.95;48.79;97326.84;5025626;28;115499;-93
2022/04/22 06:23:24;;;;;;;18.50;14.33;;;11.30;63.40;;;11.96;49.32;97324.91;5014231;28;123528;-95
2022/04/22 06:25:50;;;;;;;15.57;12.37;;;11.20;63.50;;;11.93;48.85;97323.66;5011839;28;123314;-94
2022/04/22 06:28:16;;;;;;;18.00;12.90;;;11.30;63.40;;;11.98;49.13;97326.13;5021118;28;113454;-93
2022/04/22 06:30:46;;;;;;;15.80;12.10;;;11.30;63.50;;;12.03;48.95;97325.84;5029687;28;113631;-93
2022/04/22 06:33:16;;;;;;;13.50;11.07;;;11.40;63.40;;;12.12;48.74;97334.00;5014716;28;123467;-92
2022/04/22 06:35:43;;;;;;;10.97;8.90;;;11.40;63.30;;;12.19;48.69;97325.84;5013496;28;124418;-93
2022/04/22 06:38:15;;;;;;;16.20;12.00;;;11.50;63.20;;;12.31;48.58;97325.75;5014268;28;113435;-93
2022/04/22 06:46:16;;;;;;;16.73;13.20;;;11.70;63.40;;;12.35;48.73;97315.53;5013649;28;124544;-95
2022/04/22 06:48:43;;;;;;;18.17;12.80;;;11.70;63.30;;;12.38;48.63;97306.53;5010744;28;113905;-94
2022/04/22 06:51:15;;;;;;;12.70;10.47;;;11.70;63.20;;;12.46;48.37;97314.97;5011166;28;113520;-93
2022/04/22 06:53:42;;;;;;;13.50;10.97;;;11.80;63.10;;;12.54;48.09;97311.22;5009594;28;122966;-91
2022/04/22 06:56:09;;;;;;;12.17;9.97;;;11.90;63.20;;;12.64;48.25;97309.84;4993313;28;123262;-93
2022/04/22 06:58:38;;;;;;;14.20;10.30;;;11.90;63.00;;;12.72;47.76;97304.09;5008536;28;115490;-92
2022/04/22 07:01:05;;;;;;;18.83;13.97;;;12.00;62.90;;;12.81;47.98;97303.88;5013519;28;114659;-93
2022/04/22 07:03:33;;;;;;;19.20;14.43;;;12.10;63.20;;;12.83;47.66;97307.88;5010904;28;124193;-93
2022/04/22 07:06:00;;;;;;;15.37;12.50;;;12.10;62.80;;;12.88;47.70;97297.69;5009859;28;123051;-93
2022/04/22 07:08:26;;;;;;;14.87;11.27;;;12.20;62.70;;;12.96;47.45;97304.97;5011819;28;115266;-93
2022/04/22 07:10:53;;;;;;;16.03;13.00;;;12.20;62.60;;;12.97;47.74;97306.56;5010293;28;115149;-93
2022/04/22 07:13:20;;;;;;;15.50;13.50;;;12.30;62.60;;;12.97;47.62;97292.72;5009356;28;123295;-93
2022/04/22 07:15:50;;;;;;;16.83;13.13;;;12.30;62.70;;;12.97;47.29;97292.72;5013770;28;123755;-92
2022/04/22 07:18:17;;;;;;;17.77;12.37;;;12.30;62.50;;;13.01;47.37;97293.59;5025035;28;115364;-95
2022/04/22 07:20:44;;;;;;;23.47;15.43;;;12.30;62.40;;;13.01;47.41;97296.38;5011438;28;111775;-93
2022/04/22 07:23:13;;;;;;;18.13;14.47;;;12.40;62.80;;;13.02;47.64;97292.41;4993121;28;123251;-94
2022/04/22 07:25:44;;;;;;;17.40;13.40;;;12.30;62.60;;;13.06;47.30;97296.09;5009047;28;123601;-93
2022/04/22 07:28:13;;;;;;;15.70;12.30;;;12.40;62.50;;;13.16;47.15;97284.38;5009481;28;114086;-94
2022/04/22 07:30:46;;;;;;;20.03;15.40;;;12.50;62.50;;;13.18;47.28;97284.81;5007984;28;113866;-94
2022/04/22 07:33:13;;;;;;;18.50;13.83;;;12.50;62.60;;;13.17;47.17;97290.75;5021610;28;124371;-92
2022/04/22 07:35:41;;;;;;;18.83;14.70;;;12.50;62.40;;;13.20;47.22;97298.34;5009600;28;123564;-94
2022/04/22 07:38:10;;;;;;;17.67;13.23;;;12.50;62.60;;;13.22;47.21;97296.78;5025177;28;114349;-93
2022/04/22 07:40:40;;;;;;;15.93;12.80;;;12.50;62.40;;;13.28;47.30;97290.97;5010722;28;113800;-94
2022/04/22 07:48:38;;;;;;;16.73;13.73;;;12.70;62.30;;;13.40;47.50;97283.28;5025733;28;114777;-94
2022/04/22 07:51:04;;;;;;;18.73;14.60;;;12.70;62.50;;;13.45;47.31;97293.28;5009784;28;113271;-94
2022/04/22 07:53:32;;;;;;;16.80;12.43;;;12.80;62.50;;;13.50;46.97;97292.19;5007945;28;124151;-93
2022/04/22 07:55:59;;;;;;;15.67;12.27;;;12.80;62.30;;;13.55;46.98;97289.09;5008673;28;123637;-93
2022/04/22 07:58:26;;;;;;;18.23;13.53;;;12.90;62.40;;;13.59;47.05;97289.94;4991770;28;115958;-92
2022/04/22 08:00:52;;;;;;;20.70;15.50;;;12.90;62.30;;;13.59;47.04;97281.63;5008223;28;114957;-93
2022/04/22 08:03:18;;;;;;;28.30;16.60;;;12.90;62.40;;;13.55;46.87;97275.22;5011270;28;124078;-93
2022/04/22 08:05:45;;;;;;;15.47;13.30;;;12.90;62.40;;;13.51;47.03;97275.16;5008173;28;124172;-94
2022/04/22 08:08:12;;;;;;;17.00;13.67;;;12.90;62.30;;;13.56;46.98;97277.63;5007037;28;114213;-92
2022/04/22 08:10:38;;;;;;;14.40;11.70;;;12.90;62.30;;;13.62;46.95;97265.06;5007417;28;114673;-93
2022/04/22 08:13:06;;;;;;;14.80;11.90;;;13.00;62.30;;;13.77;46.93;97270.84;5009444;28;124073;-94
2022/04/22 08:15:36;;;;;;;15.63;11.90;;;13.10;62.30;;;13.88;46.61;97271.81;5011100;28;123831;-94
2022/04/22 08:18:04;;;;;;;19.97;13.30;;;13.20;62.30;;;13.98;46.61;97268.41;5009910;28;114257;-94
2022/04/22 08:20:33;;;;;;;17.43;13.80;;;13.30;62.20;;;14.03;46.30;97268.09;5006689;28;114694;-94
2022/04/22 08:23:01;;;;;;;15.70;12.17;;;13.30;62.10;;;14.10;46.32;97268.22;5007009;28;124294;-92
2022/04/22 08:25:27;;;;;;;15.83;11.90;;;13.40;62.00;;;14.20;46.22;97260.41;5007514;28;123846;-93
2022/04/22 08:27:54;;;;;;;14.00;11.90;;;13.40;61.70;;;14.23;45.98;97262.44;5009071;28;114065;-94
2022/04/22 08:30:21;;;;;;;15.67;12.87;;;13.50;61.50;;;14.26;45.82;97262.47;5007693;28;114031;-95
2022/04/22 08:32:48;;;;;;;20.30;13.93;;;13.60;61.50;;;14.29;45.74;97252.59;5008029;28;123071;-90
2022/04/22 08:35:14;;;;;;;15.50;12.87;;;13.60;61.40;;;14.32;45.75;97257.41;5011881;28;123076;-92
2022/04/22 08:37:45;;;;;;;15.77;12.20;;;13.60;61.30;;;14.35;45.67;97256.66;5008819;28;114363;-90
2022/04/22 08:40:12;;;;;;;13.43;11.40;;;13.70;61.20;;;14.37;45.42;97257.06;5018016;28;114011;-94
2022/04/22 08:42:41;;;;;;;16.03;12.57;;;13.70;61.10;;;14.37;45.60;97248.75;5007883;28;124179;-93
2022/04/22 08:45:11;;;;;;;14.67;12.03;;;13.70;61.10;;;14.42;45.56;97251.19;5008149;28;124238;-94
2022/04/22 08:50:31;;;;;;;11.43;9.77;;;13.80;61.10;;;14.60;45.52;97245.13;5010987;28;115047;-93
2022/04/22 08:53:05;;;;;;;15.27;11.80;;;13.90;60.90;;;14.69;45.14;97237.28;5005231;28;124651;-94
2022/04/22 08:55:34;;;;;;;17.83;14.10;;;14.00;60.80;;;14.69;45.11;97231.72;5005772;28;123891;-93
2022/04/22 08:58:05;;;;;;;14.77;11.00;;;14.00;60.60;;;14.72;44.98;97242.09;5005394;28;114017;-92
2022/04/22 09:00:37;;;;;;;11.03;9.03;;;14.00;60.50;;;14.80;45.04;97232.66;4992818;28;113269;-94
2022/04/22 09:03:04;;;;;;;16.30;12.77;;;14.10;60.50;;;14.88;44.71;97239.88;5007628;28;124183;-88
2022/04/22 09:05:34;;;;;;;16.93;14.00;;;14.20;60.30;;;14.86;44.71;97233.94;4992292;28;122693;-93
2022/04/22 09:08:02;;;;;;;13.70;11.67;;;14.20;60.00;;;14.90;44.75;97231.19;5008697;28;114023;-94
2022/04/22 09:10:28;;;;;;;11.77;10.03;;;14.20;60.00;;;14.92;44.63;97224.06;5007471;28;112809;-92
2022/04/22 09:12:57;;;;;;;15.20;11.97;;;14.30;59.80;;;15.00;44.62;97222.97;5009577;28;124111;-92
2022/04/22 09:19:05;;;;;;;12.23;10.50;;;14.40;59.90;;;15.02;44.52;97214.25;5024041;28;115268;-91
2022/04/22 09:21:32;;;;;;;13.77;11.33;;;14.40;59.70;;;15.11;44.57;97219.50;5032692;28;114338;-91
2022/04/22 09:24:13;;;;;;;15.93;11.00;;;14.40;59.70;;;15.15;44.27;97215.59;5033747;27;123784;-92
2022/04/22 09:26:40;;;;;;;14.97;12.57;;;14.50;59.40;;;15.20;44.05;97212.44;5011342;28;123580;-93
2022/04/22 09:29:10;;;;;;;18.40;11.20;;;14.50;59.20;;;15.22;43.90;97210.06;5012797;28;114230;-93
2022/04/22 09:31:47;;;;;;;16.13;12.00;;;14.60;59.20;;;15.27;43.92;97200.59;5011455;28;114341;-93
2022/04/22 09:34:14;;;;;;;14.03;10.60;;;14.60;59.10;;;15.30;43.99;97216.50;5011025;28;123280;-93
2022/04/22 09:45:00;;;;;;;13.93;12.00;;;14.80;59.10;;;15.44;43.76;97188.81;5010865;28;124643;-91
2022/04/22 09:47:33;;;;;;;12.93;9.67;;;14.80;58.90;;;15.49;43.81;97203.56;5029179;28;123229;-94
2022/04/22 09:50:05;;;;;;;14.33;11.93;;;14.90;59.00;;;15.58;43.80;97195.69;5009234;28;113687;-93
2022/04/22 09:52:36;;;;;;;14.00;10.63;;;14.90;59.00;;;15.77;43.53;97192.72;5009675;28;114550;-94
2022/04/22 09:55:08;;;;;;;12.77;10.70;;;15.00;59.00;;;15.87;43.24;97189.16;5012074;28;123674;-93
2022/04/22 09:57:58;;;;;;;15.23;11.40;;;15.10;58.70;;;15.90;43.18;97182.03;5008137;28;123103;-94
2022/04/22 10:00:32;;;;;;;12.90;10.90;;;15.20;58.60;;;15.92;43.14;97190.81;5010034;28;113607;-93
2022/04/22 10:03:00;;;;;;;11.13;8.97;;;15.30;59.10;;;15.97;43.00;97184.88;5015283;28;114604;-92
2022/04/22 10:05:31;;;;;;;11.90;10.43;;;15.30;58.40;;;16.02;42.83;97192.88;5013709;28;124167;-92
2022/04/22 10:08:02;;;;;;;12.57;9.13;;;15.40;58.20;;;16.07;42.73;97175.00;5014257;28;122995;-91
2022/04/22 10:10:35;;;;;;;10.90;9.10;;;15.40;58.10;;;16.10;42.69;97180.59;5014117;28;114289;-90
2022/04/22 10:13:04;;;;;;;16.47;12.30;;;15.50;58.00;;;16.15;42.55;97182.22;5011578;28;114016;-91
2022/04/22 10:15:39;;;;;;;15.70;11.63;;;15.50;57.70;;;16.18;42.40;97184.22;5013111;28;122769;-91
2022/04/22 10:18:09;;;;;;;10.97;8.73;;;15.50;57.50;;;16.22;42.32;97176.66;5011647;28;124125;-90
2022/04/22 10:20:37;;;;;;;12.70;11.00;;;15.60;57.50;;;16.28;42.20;97163.97;5011223;28;114240;-91
2022/04/22 10:23:06;;;;;;;13.80;10.63;;;15.70;57.20;;;16.32;41.93;97173.13;5012688;28;113315;-89
2022/04/22 10:25:33;;;;;;;13.10;10.50;;;15.70;57.00;;;16.36;42.05;97167.56;5009539;28;124149;-94
2022/04/22 10:28:06;;;;;;;12.20;9.63;;;15.80;57.00;;;16.39;41.98;97168.78;5015028;28;124045;-89
2022/04/22 10:30:35;;;;;;;10.80;9.50;;;15.80;56.80;;;16.43;41.85;97164.81;5007323;28;115262;-91
2022/04/22 10:33:03;;;;;;;14.13;11.60;;;15.80;56.80;;;16.50;41.75;97170.44;5016701;28;116058;-90
2022/04/22 10:35:30;;;;;;;13.77;10.60;;;15.90;56.70;;;16.55;41.63;97177.63;5012695;28;123708;-90
2022/04/22 10:37:59;;;;;;;15.40;10.77;;;15.90;56.50;;;16.63;41.59;97161.72;5030000;28;122716;-89
2022/04/22 10:40:26;;;;;;;15.83;10.30;;;16.00;56.50;;;16.67;41.45;97154.97;5029462;27;114643;-88
2022/04/22 10:42:58;;;;;;;12.77;10.90;;;16.10;56.40;;;16.76;41.41;97151.78;5012343;28;113935;-87
2022/04/22 10:48:25;;;;;;;10.63;8.60;;;16.20;56.20;;;16.91;41.04;97153.47;5013727;28;124983;-89
2022/04/22 10:51:02;;;;;;;10.60;8.67;;;16.30;56.10;;;16.99;40.93;97145.91;5016457;28;114364;-91
2022/04/22 10:53:37;;;;;;;11.87;9.03;;;16.40;56.00;;;17.12;40.98;97143.56;5011454;28;113402;-92
2022/04/22 10:56:25;;;;;;;12.37;10.63;;;16.50;56.00;;;17.20;40.32;97140.38;5009926;28;123979;-88
2022/04/22 10:59:20;;;;;;;11.57;9.40;;;16.60;55.40;;;17.27;40.44;97138.78;5012724;28;123898;-88
2022/04/22 11:01:48;;;;;;;12.37;10.07;;;16.70;55.40;;;17.39;40.47;97136.41;5030975;28;113952;-89
2022/04/22 11:04:24;;;;;;;10.77;9.67;;;16.70;55.40;;;17.54;40.46;97134.38;5025925;28;113855;-91
2022/04/22 11:06:51;;;;;;;9.20;8.20;;;16.90;55.50;;;17.68;40.38;97139.19;5012777;28;124229;-90
2022/04/22 11:09:26;;;;;;;13.57;11.40;;;17.00;55.40;;;17.75;40.02;97132.78;5011354;28;124373;-88
2022/04/22 11:11:55;;;;;;;12.13;10.57;;;17.10;54.90;;;17.78;39.94;97138.34;5006992;28;114587;-89
2022/04/22 11:14:32;;;;;;;11.50;9.23;;;17.20;55.00;;;17.83;39.99;97131.59;4983734;28;113439;-89
2022/04/22 11:17:33;;;;;;;12.47;10.83;;;17.20;54.90;;;17.92;39.98;97134.78;5012549;28;122484;-91
2022/04/22 11:20:00;;;;;;;11.87;10.20;;;17.30;54.90;;;18.03;39.76;97129.97;5010693;28;123936;-90
2022/04/22 11:22:59;;;;;;;14.17;9.77;;;17.40;54.80;;;18.14;39.63;97129.16;5014651;28;114768;-91
2022/04/22 11:25:27;;;;;;;11.57;9.87;;;17.50;54.50;;;18.23;39.23;97119.13;5013759;28;114667;-87
2022/04/22 11:27:55;;;;;;;9.33;8.10;;;17.60;54.50;;;18.37;39.37;97123.88;5030742;28;124899;-90
2022/04/22 11:30:22;;;;;;;16.03;9.90;;;17.70;54.50;;;18.47;38.87;97125.81;5012018;28;124403;-93
2022/04/22 11:32:56;;;;;;;14.13;11.50;;;17.80;53.90;;;18.52;38.57;97127.41;5014093;28;113778;-90
2022/04/22 11:35:32;;;;;;;13.30;11.67;;;17.90;53.30;;;18.58;38.24;97119.41;5010283;28;114683;-89
2022/04/22 11:38:04;;;;;;;12.00;9.50;;;18.00;53.10;;;18.63;38.46;97125.34;5009793;28;123924;-86
2022/04/22 11:40:35;;;;;;;9.17;7.90;;;18.00;53.20;;;18.71;38.35;97114.94;5007643;28;123916;-85
2022/04/22 11:43:18;;;;;;;11.80;8.00;;;18.10;53.20;;;18.81;38.26;97116.91;5025856;28;114234;-90
2022/04/22 11:45:47;;;;;;;13.43;10.07;;;18.20;53.10;;;18.91;37.78;97113.25;5015034;28;114106;-89
2022/04/22 11:48:20;;;;;;;12.97;11.13;;;18.30;52.50;;;19.00;37.81;97117.59;5008700;28;124612;-89
2022/04/22 11:50:47;;;;;;;11.90;10.70;;;18.40;52.60;;;19.04;37.45;97107.97;5026432;27;124097;-91
2022/04/22 11:53:20;;;;;;;9.60;8.27;;;18.40;52.20;;;19.08;37.38;97111.53;5010219;28;114457;-89
2022/04/22 11:55:48;;;;;;;8.87;7.50;;;18.50;52.00;;;19.16;37.49;97103.88;5008056;28;113835;-88
2022/04/22 11:58:21;;;;;;;9.00;7.63;;;18.60;52.10;;;19.30;37.00;97108.59;5009298;28;124064;-91
2022/04/22 12:06:21;;;;;;;7.10;5.90;;;18.90;51.50;;;19.74;36.61;97098.63;5014514;28;115306;-93
2022/04/22 12:09:02;;;;;;;7.13;5.90;;;19.00;51.50;;;19.90;36.39;97095.25;5009654;28;124554;-90
2022/04/22 12:11:30;;;;;;;7.87;7.07;;;19.20;51.40;;;20.08;35.77;97090.25;5006785;28;123833;-90